createdAt,value
2022-09-20T00:01:52.032Z,13.82
2022-09-20T00:06:55.432Z,13.91
2022-09-20T00:11:59.716Z,13.81
2022-09-20T00:17:04.965Z,13.94
2022-09-20T00:22:08.723Z,14.03
2022-09-20T00:27:12.507Z,13.93
2022-09-20T00:32:17.693Z,13.81
2022-09-20T00:37:21.156Z,13.82
2022-09-20T00:42:28.341Z,13.86
2022-09-20T00:47:42.011Z,13.87
2022-09-20T00:52:48.292Z,13.76
2022-09-20T00:57:52.471Z,13.92
2022-09-20T01:03:02.423Z,13.93
2022-09-20T01:08:06.781Z,13.93
2022-09-20T01:13:10.448Z,14.03
2022-09-20T01:18:16.468Z,14.01
2022-09-20T01:23:38.794Z,14.06
2022-09-20T01:28:47.776Z,13.88
2022-09-20T01:33:55.326Z,13.81
2022-09-20T01:39:10.837Z,13.71
2022-09-20T01:44:24.232Z,13.57
2022-09-20T01:49:36.426Z,13.54
2022-09-20T01:55:09.165Z,13.54
2022-09-20T02:00:17.775Z,13.39
2022-09-20T02:06:04.109Z,13.22
2022-09-20T02:11:17.754Z,13.10
2022-09-20T02:16:41.601Z,12.99
2022-09-20T02:21:54.514Z,13.07
2022-09-20T02:27:11.479Z,12.98
2022-09-20T02:32:30.391Z,13.00
2022-09-20T02:37:56.192Z,12.76
2022-09-20T02:43:09.109Z,12.67
2022-09-20T02:48:18.214Z,12.76
2022-09-20T02:53:38.275Z,12.67
2022-09-20T02:58:51.224Z,12.56
2022-09-20T03:04:12.152Z,12.34
2022-09-20T03:09:27.173Z,12.37
2022-09-20T03:14:37.869Z,12.34
2022-09-20T03:19:58.468Z,12.31
2022-09-20T03:25:21.677Z,12.29
2022-09-20T03:30:38.123Z,12.37
2022-09-20T03:35:58.683Z,12.29
2022-09-20T03:41:44.573Z,12.20
2022-09-20T03:46:50.230Z,12.21
2022-09-20T03:52:04.318Z,12.01
2022-09-20T03:57:30.283Z,11.92
2022-09-20T04:02:47.418Z,11.68
2022-09-20T04:08:02.324Z,11.70
2022-09-20T04:13:23.013Z,11.57
2022-09-20T04:18:37.789Z,11.35
2022-09-20T04:23:51.313Z,11.40
2022-09-20T04:29:02.044Z,11.47
2022-09-20T04:34:14.567Z,11.52
2022-09-20T04:39:29.938Z,11.54
2022-09-20T04:45:08.024Z,11.65
2022-09-20T04:50:44.570Z,11.70
2022-09-20T04:55:55.741Z,11.90
2022-09-20T05:01:22.261Z,12.00
2022-09-20T05:06:47.533Z,12.22
2022-09-20T05:12:09.758Z,12.29
2022-09-20T05:17:26.949Z,12.47
2022-09-20T05:23:11.414Z,12.30
2022-09-20T05:28:25.179Z,12.19
2022-09-20T05:33:35.238Z,12.18
2022-09-20T05:38:48.681Z,12.52
2022-09-20T05:43:58.851Z,12.54
2022-09-20T05:49:13.148Z,12.58
2022-09-20T05:54:29.649Z,12.65
2022-09-20T05:59:46.260Z,12.82
2022-09-20T06:05:00.090Z,13.07
2022-09-20T06:10:25.844Z,12.84
2022-09-20T06:15:39.353Z,13.00
2022-09-20T06:20:54.989Z,13.02
2022-09-20T06:26:03.939Z,13.20
2022-09-20T06:31:10.701Z,13.28
2022-09-20T06:36:36.801Z,13.22
2022-09-20T06:41:42.872Z,13.29
2022-09-20T06:46:49.411Z,13.26
2022-09-20T06:51:52.798Z,13.37
2022-09-20T06:56:56.218Z,13.48
2022-09-20T07:02:01.341Z,13.61
2022-09-20T07:07:09.512Z,13.90
2022-09-20T07:12:13.508Z,14.10
2022-09-20T07:17:18.336Z,13.96
2022-09-20T07:22:21.781Z,14.17
2022-09-20T07:27:29.078Z,14.90
2022-09-20T07:32:34.507Z,15.41
2022-09-20T07:37:41.387Z,15.63
2022-09-20T07:42:46.131Z,15.70
2022-09-20T07:47:51.168Z,16.29
2022-09-20T07:52:57.235Z,16.41
2022-09-20T07:58:00.645Z,16.06
2022-09-20T08:03:06.168Z,16.52
2022-09-20T08:08:09.745Z,17.11
2022-09-20T08:18:39.377Z,17.68
2022-09-20T08:23:44.726Z,18.06
2022-09-20T08:28:52.764Z,17.95
2022-09-20T08:33:58.272Z,18.20
2022-09-20T08:44:34.970Z,18.46
2022-09-20T08:49:46.192Z,18.24
2022-09-20T08:54:49.729Z,18.43
2022-09-20T08:59:53.165Z,18.41
2022-09-20T09:04:58.602Z,18.42
2022-09-20T09:10:03.143Z,17.68
2022-09-20T09:15:23.122Z,17.95
2022-09-20T09:20:28.509Z,18.51
2022-09-20T09:25:34.683Z,18.63
2022-09-20T09:30:40.269Z,19.22
2022-09-20T09:35:46.482Z,19.28
2022-09-20T09:40:55.606Z,19.40
2022-09-20T09:46:18.996Z,19.54
2022-09-20T09:51:26.054Z,19.93
2022-09-20T09:56:50.145Z,19.66
2022-09-20T10:01:59.766Z,20.11
2022-09-20T10:07:10.798Z,20.14
2022-09-20T10:12:37.679Z,20.26
2022-09-20T10:17:53.622Z,20.74
2022-09-20T10:28:50.478Z,21.01
2022-09-20T10:34:20.349Z,21.38
2022-09-20T10:39:28.253Z,21.79
2022-09-20T10:44:46.790Z,21.82
2022-09-20T10:50:05.614Z,22.24
2022-09-20T10:55:26.488Z,21.18
2022-09-20T11:00:44.760Z,21.63
2022-09-20T11:06:00.250Z,21.47
2022-09-20T11:11:10.520Z,21.46
2022-09-20T11:16:18.476Z,21.72
2022-09-20T11:21:27.904Z,21.61
2022-09-20T11:26:39.597Z,21.89
2022-09-20T11:31:47.427Z,22.54
2022-09-20T11:36:57.648Z,22.14
2022-09-20T11:42:05.298Z,21.73
2022-09-20T11:47:31.199Z,22.85
2022-09-20T11:52:59.961Z,22.10
2022-09-20T11:58:09.960Z,21.80
2022-09-20T12:03:27.142Z,22.50
2022-09-20T12:08:34.642Z,23.53
2022-09-20T12:13:42.122Z,23.56
2022-09-20T12:19:02.954Z,23.21
2022-09-20T12:24:22.556Z,23.17
2022-09-20T12:30:07.547Z,23.46
2022-09-20T12:36:01.424Z,21.92
2022-09-20T12:41:13.133Z,21.72
2022-09-20T12:46:29.293Z,20.83
2022-09-20T12:51:51.856Z,20.06
2022-09-20T12:56:56.744Z,20.41
2022-09-20T13:02:38.734Z,19.91
2022-09-20T13:07:45.795Z,21.03
2022-09-20T13:12:54.627Z,21.26
2022-09-20T13:18:02.717Z,20.62
2022-09-20T13:23:06.706Z,20.48
2022-09-20T13:28:23.028Z,20.83
2022-09-20T13:33:27.024Z,20.99
2022-09-20T13:38:32.785Z,19.82
2022-09-20T13:43:43.027Z,19.68
2022-09-20T13:48:48.750Z,19.30
2022-09-20T13:53:52.368Z,19.40
2022-09-20T13:58:59.066Z,19.18
2022-09-20T14:04:08.663Z,19.40
2022-09-20T14:09:22.636Z,19.31
2022-09-20T14:14:28.896Z,19.20
2022-09-20T14:19:37.384Z,19.48
2022-09-20T14:24:41.758Z,19.29
2022-09-20T14:29:48.032Z,19.50
2022-09-20T14:35:01.014Z,19.52
2022-09-20T14:40:08.817Z,19.17
2022-09-20T14:45:24.413Z,19.01
2022-09-20T14:50:31.481Z,19.09
2022-09-20T14:55:37.909Z,18.76
2022-09-20T15:00:52.398Z,18.53
2022-09-20T15:05:56.484Z,18.46
2022-09-20T15:11:01.641Z,18.33
2022-09-20T15:16:06.888Z,18.24
2022-09-20T15:21:11.033Z,18.11
2022-09-20T15:26:15.857Z,18.20
2022-09-20T15:31:21.250Z,18.01
2022-09-20T15:36:24.974Z,17.94
2022-09-20T15:41:31.269Z,18.05
2022-09-20T15:46:36.605Z,17.91
2022-09-20T15:51:40.393Z,17.91
2022-09-20T15:56:44.161Z,17.75
2022-09-20T16:01:48.976Z,17.61
2022-09-20T16:06:52.358Z,17.55
2022-09-20T16:11:58.926Z,17.48
2022-09-20T16:17:03.796Z,17.41
2022-09-20T16:22:07.551Z,17.13
2022-09-20T16:27:11.183Z,16.94
2022-09-20T16:32:15.973Z,16.77
2022-09-20T16:37:19.465Z,16.54
2022-09-20T16:42:23.693Z,16.49
2022-09-20T16:47:29.774Z,16.38
2022-09-20T16:52:33.181Z,16.16
2022-09-20T16:57:36.907Z,15.61
2022-09-20T17:02:47.106Z,15.34
2022-09-20T17:07:51.165Z,15.10
2022-09-20T17:12:58.102Z,14.72
2022-09-20T17:18:05.511Z,14.43
2022-09-20T17:23:09.472Z,14.39
2022-09-20T17:28:14.436Z,14.36
2022-09-20T17:33:19.217Z,13.94
2022-09-20T17:38:22.892Z,13.76
2022-09-20T17:43:27.326Z,13.94
2022-09-20T17:48:34.280Z,13.71
2022-09-20T17:53:38.236Z,13.50
2022-09-20T17:58:42.708Z,13.41
2022-09-20T18:03:49.793Z,13.51
2022-09-20T18:08:55.549Z,13.19
2022-09-20T18:13:59.143Z,13.25
2022-09-20T18:19:04.794Z,12.93
2022-09-20T18:24:11.421Z,12.81
2022-09-20T18:29:18.296Z,12.85
2022-09-20T18:34:25.102Z,12.78
2022-09-20T18:39:31.083Z,12.59
2022-09-20T18:44:34.720Z,12.53
2022-09-20T18:49:39.765Z,12.43
2022-09-20T18:54:43.483Z,12.43
2022-09-20T18:59:54.429Z,12.42
2022-09-20T19:05:14.250Z,12.41
2022-09-20T19:10:26.293Z,12.44
2022-09-20T19:15:41.568Z,12.33
2022-09-20T19:20:49.618Z,12.02
2022-09-20T19:26:02.609Z,12.13
2022-09-20T19:31:06.915Z,11.92
2022-09-20T19:36:13.472Z,11.96
2022-09-20T19:41:29.554Z,11.88
2022-09-20T19:46:44.829Z,11.87
2022-09-20T19:51:50.490Z,11.90
2022-09-20T19:56:57.210Z,11.65
2022-09-20T20:02:01.619Z,11.61
2022-09-20T20:07:15.633Z,11.65
2022-09-20T20:12:28.297Z,11.54
2022-09-20T20:17:46.456Z,11.56
2022-09-20T20:23:19.328Z,11.54
2022-09-20T20:28:22.833Z,11.29
2022-09-20T20:33:26.986Z,11.11
2022-09-20T20:38:36.973Z,11.08
2022-09-20T20:43:42.336Z,11.24
2022-09-20T20:48:46.175Z,11.20
2022-09-20T20:53:53.104Z,11.09
2022-09-20T20:59:00.930Z,11.03
2022-09-20T21:04:07.937Z,11.17
2022-09-20T21:09:13.628Z,11.25
2022-09-20T21:14:17.365Z,11.41
2022-09-20T21:19:23.982Z,11.18
2022-09-20T21:24:28.792Z,10.91
2022-09-20T21:29:32.648Z,10.95
2022-09-20T21:34:36.384Z,10.78
2022-09-20T21:39:41.508Z,10.72
2022-09-20T21:44:45.167Z,10.72
2022-09-20T21:49:48.632Z,10.81
2022-09-20T21:54:53.407Z,10.83
2022-09-20T21:59:56.795Z,10.96
2022-09-20T22:05:00.452Z,11.02
2022-09-20T22:10:05.877Z,10.96
2022-09-20T22:15:10.863Z,10.71
2022-09-20T22:20:14.521Z,10.65
2022-09-20T22:25:19.598Z,10.80
2022-09-20T22:30:23.007Z,10.80
2022-09-20T22:35:26.413Z,10.82
2022-09-20T22:40:31.574Z,10.76
2022-09-20T22:45:35.088Z,10.83
2022-09-20T22:50:38.806Z,10.85
2022-09-20T22:55:43.567Z,10.86
2022-09-20T23:00:46.976Z,10.78
2022-09-20T23:05:50.658Z,10.83
2022-09-20T23:11:03.024Z,10.84
2022-09-20T23:16:14.455Z,10.72
2022-09-20T23:21:19.285Z,10.68
2022-09-20T23:26:25.536Z,10.41
2022-09-20T23:31:30.142Z,10.50
2022-09-20T23:36:35.733Z,10.45
2022-09-20T23:41:41.521Z,10.42
2022-09-20T23:46:45.138Z,10.41
2022-09-20T23:51:48.617Z,10.37
2022-09-20T23:56:53.378Z,10.48
